createdAt,value
2023-03-26T00:00:31.990Z,61.20
2023-03-26T00:02:24.230Z,63.38
2023-03-26T00:03:58.791Z,64.65
2023-03-26T00:05:36.985Z,62.42
2023-03-26T00:07:10.637Z,59.57
2023-03-26T00:08:44.889Z,56.96
2023-03-26T00:10:18.549Z,56.94
2023-03-26T00:12:02.657Z,58.14
2023-03-26T00:13:35.937Z,60.28
2023-03-26T00:15:22.011Z,61.90
2023-03-26T00:18:51.738Z,63.21
2023-03-26T00:20:26.049Z,60.56
2023-03-26T00:22:11.377Z,57.83
2023-03-26T00:23:51.974Z,56.61
2023-03-26T00:25:28.581Z,57.70
2023-03-26T00:27:09.708Z,59.62
2023-03-26T00:28:34.053Z,61.21
2023-03-26T00:30:07.385Z,62.87
2023-03-26T00:31:49.615Z,64.67
2023-03-26T00:33:12.000Z,63.30
2023-03-26T00:34:57.236Z,60.83
2023-03-26T00:36:42.070Z,57.49
2023-03-26T00:38:17.648Z,56.59
2023-03-26T00:39:49.393Z,57.92
2023-03-26T00:41:36.514Z,59.59
2023-03-26T00:43:30.838Z,61.53
2023-03-26T00:45:05.269Z,64.01
2023-03-26T00:46:52.176Z,64.21
2023-03-26T00:48:44.382Z,61.47
2023-03-26T00:50:19.288Z,58.45
2023-03-26T00:52:05.254Z,56.36
2023-03-26T00:53:38.144Z,57.32
2023-03-26T00:55:23.842Z,59.26
2023-03-26T00:57:08.804Z,61.09
2023-03-26T00:58:32.946Z,62.67
2023-03-26T01:00:16.521Z,64.58
2023-03-26T01:01:52.317Z,63.03
2023-03-26T01:03:29.230Z,60.07
2023-03-26T01:05:02.856Z,57.39
2023-03-26T01:06:39.681Z,57.20
2023-03-26T01:08:09.381Z,58.43
2023-03-26T01:09:45.343Z,60.65
2023-03-26T01:11:39.648Z,62.33
2023-03-26T01:13:20.371Z,64.26
2023-03-26T01:14:53.826Z,62.95
2023-03-26T01:16:34.516Z,60.50
2023-03-26T01:18:09.441Z,57.83
2023-03-26T01:19:35.593Z,56.81
2023-03-26T01:21:21.130Z,58.03
2023-03-26T01:23:15.650Z,60.30
2023-03-26T01:25:00.279Z,62.04
2023-03-26T01:26:24.338Z,64.10
2023-03-26T01:28:18.670Z,63.95
2023-03-26T01:30:00.965Z,60.96
2023-03-26T01:31:41.656Z,57.70
2023-03-26T01:33:36.502Z,56.74
2023-03-26T01:35:12.567Z,58.41
2023-03-26T01:36:44.246Z,60.13
2023-03-26T01:38:13.433Z,61.73
2023-03-26T01:39:54.374Z,63.55
2023-03-26T01:41:28.283Z,64.47
2023-03-26T01:42:57.546Z,62.11
2023-03-26T01:44:31.269Z,59.33
2023-03-26T01:46:11.958Z,56.80
2023-03-26T01:47:41.781Z,57.00
2023-03-26T01:49:15.580Z,58.19
2023-03-26T01:51:00.659Z,60.03
2023-03-26T01:52:25.081Z,61.71
2023-03-26T01:53:48.633Z,63.69
2023-03-26T01:55:23.297Z,64.47
2023-03-26T01:57:09.973Z,62.15
2023-03-26T01:58:43.672Z,58.75
2023-03-26T02:00:28.534Z,56.76
2023-03-26T02:02:14.131Z,57.08
2023-03-26T02:04:08.642Z,58.93
2023-03-26T02:05:50.606Z,60.73
2023-03-26T02:07:32.774Z,62.46
2023-03-26T02:08:54.540Z,64.65
2023-03-26T02:10:24.273Z,63.79
2023-03-26T02:12:06.660Z,61.35
2023-03-26T02:13:40.270Z,57.84
2023-03-26T02:15:15.648Z,56.39
2023-03-26T02:16:56.436Z,57.45
2023-03-26T02:18:44.815Z,58.97
2023-03-26T02:20:38.703Z,60.69
2023-03-26T02:22:07.593Z,62.36
2023-03-26T02:24:02.874Z,64.38
2023-03-26T02:25:42.811Z,63.22
2023-03-26T02:27:29.981Z,59.94
2023-03-26T02:29:15.517Z,56.79
2023-03-26T02:30:56.882Z,56.91
2023-03-26T02:32:30.402Z,58.53
2023-03-26T02:34:06.560Z,60.16
2023-03-26T02:36:01.812Z,61.79
2023-03-26T02:37:56.655Z,64.13
2023-03-26T02:39:29.798Z,63.72
2023-03-26T02:41:17.962Z,60.77
2023-03-26T02:43:06.137Z,57.35
2023-03-26T02:44:47.335Z,56.38
2023-03-26T02:46:15.063Z,57.83
2023-03-26T02:48:15.844Z,59.68
2023-03-26T02:50:48.391Z,62.28
2023-03-26T02:52:49.377Z,64.56
2023-03-26T02:54:25.372Z,63.18
2023-03-26T02:56:24.886Z,59.53
2023-03-26T02:58:46.433Z,56.42
2023-03-26T03:00:26.271Z,57.20
2023-03-26T03:02:25.243Z,59.16
2023-03-26T03:04:10.766Z,61.08
2023-03-26T03:05:46.979Z,63.06
2023-03-26T03:07:26.273Z,64.40
2023-03-26T03:09:15.974Z,62.40
2023-03-26T03:11:22.119Z,57.99
2023-03-26T03:13:08.034Z,56.28
2023-03-26T03:14:41.274Z,57.36
2023-03-26T03:16:17.326Z,59.01
2023-03-26T03:17:50.790Z,60.60
2023-03-26T03:19:20.443Z,62.10
2023-03-26T03:21:06.646Z,64.08
2023-03-26T03:22:55.800Z,63.67
2023-03-26T03:24:49.717Z,60.35
2023-03-26T03:26:44.760Z,56.84
2023-03-26T03:28:23.470Z,56.71
2023-03-26T03:29:58.995Z,58.04
2023-03-26T03:31:52.651Z,60.22
2023-03-26T03:33:58.719Z,62.13
2023-03-26T03:35:42.025Z,64.32
2023-03-26T03:37:15.640Z,63.46
2023-03-26T03:39:13.440Z,60.38
2023-03-26T03:41:06.433Z,56.95
2023-03-26T03:43:00.265Z,56.59
2023-03-26T03:45:00.758Z,58.42
2023-03-26T03:47:00.866Z,60.63
2023-03-26T03:48:54.839Z,62.55
2023-03-26T03:50:43.807Z,64.33
2023-03-26T03:52:28.576Z,61.94
2023-03-26T03:54:14.627Z,58.98
2023-03-26T03:55:54.174Z,56.60
2023-03-26T03:57:34.093Z,57.04
2023-03-26T03:58:59.596Z,58.52
2023-03-26T04:00:41.608Z,60.24
2023-03-26T04:02:52.894Z,62.48
2023-03-26T04:04:28.952Z,64.49
2023-03-26T04:06:19.200Z,63.33
2023-03-26T04:08:09.710Z,60.24
2023-03-26T04:10:13.743Z,56.56
2023-03-26T04:12:06.061Z,56.94
2023-03-26T04:13:54.925Z,58.85
2023-03-26T04:15:48.923Z,60.79
2023-03-26T04:17:44.703Z,63.03
2023-03-26T04:19:19.301Z,64.84
2023-03-26T04:21:04.654Z,62.91
2023-03-26T04:22:47.019Z,59.76
2023-03-26T04:24:34.130Z,56.61
2023-03-26T04:26:31.835Z,57.35
2023-03-26T04:28:23.466Z,59.40
2023-03-26T04:30:19.953Z,61.95
2023-03-26T04:32:18.296Z,64.56
2023-03-26T04:34:05.974Z,63.98
2023-03-26T04:35:56.619Z,61.16
2023-03-26T04:37:40.771Z,58.22
2023-03-26T04:39:24.578Z,56.91
2023-03-26T04:41:19.400Z,58.52
2023-03-26T04:43:00.198Z,60.97
2023-03-26T04:44:58.763Z,63.89
2023-03-26T04:46:43.873Z,65.34
2023-03-26T04:48:22.920Z,63.03
2023-03-26T04:49:58.600Z,60.18
2023-03-26T04:51:46.641Z,58.05
2023-03-26T04:54:24.327Z,58.40
2023-03-26T04:55:54.626Z,60.58
2023-03-26T04:57:47.369Z,62.89
2023-03-26T04:59:38.952Z,64.90
2023-03-26T05:01:28.245Z,63.36
2023-03-26T05:03:02.053Z,60.60
2023-03-26T05:04:48.612Z,58.04
2023-03-26T05:06:36.725Z,57.47
2023-03-26T05:08:24.388Z,59.09
2023-03-26T05:10:09.532Z,61.31
2023-03-26T05:11:58.377Z,64.45
2023-03-26T05:13:47.440Z,65.00
2023-03-26T05:15:28.358Z,62.14
2023-03-26T05:16:53.313Z,59.73
2023-03-26T05:18:47.687Z,57.56
2023-03-26T05:20:35.914Z,57.85
2023-03-26T05:22:18.577Z,59.73
2023-03-26T05:24:12.629Z,62.35
2023-03-26T05:25:58.673Z,64.94
2023-03-26T05:27:39.756Z,64.22
2023-03-26T05:29:15.582Z,61.69
2023-03-26T05:31:12.854Z,59.15
2023-03-26T05:32:59.031Z,57.36
2023-03-26T05:34:35.605Z,58.71
2023-03-26T05:36:16.694Z,60.53
2023-03-26T05:37:53.308Z,62.81
2023-03-26T05:39:30.416Z,64.85
2023-03-26T05:41:22.597Z,63.96
2023-03-26T05:43:07.398Z,61.23
2023-03-26T05:44:54.340Z,58.28
2023-03-26T05:46:42.962Z,57.10
2023-03-26T05:48:18.420Z,58.19
2023-03-26T05:50:12.645Z,60.40
2023-03-26T05:52:08.032Z,62.99
2023-03-26T05:54:08.656Z,65.26
2023-03-26T05:56:10.530Z,62.23
2023-03-26T05:57:43.521Z,59.55
2023-03-26T06:00:02.487Z,56.81
2023-03-26T06:01:51.118Z,58.03
2023-03-26T06:03:46.183Z,60.34
2023-03-26T06:05:46.065Z,62.37
2023-03-26T06:07:13.036Z,64.90
2023-03-26T06:09:01.596Z,64.13
2023-03-26T06:10:44.909Z,60.76
2023-03-26T06:12:30.356Z,57.88
2023-03-26T06:14:11.333Z,57.01
2023-03-26T06:16:06.222Z,58.00
2023-03-26T06:17:54.056Z,60.20
2023-03-26T06:19:55.756Z,62.21
2023-03-26T06:21:57.817Z,64.71
2023-03-26T06:23:50.255Z,62.75
2023-03-26T06:25:31.085Z,59.01
2023-03-26T06:27:11.953Z,56.74
2023-03-26T06:29:03.943Z,57.28
2023-03-26T06:30:49.288Z,59.11
2023-03-26T06:32:51.536Z,60.91
2023-03-26T06:34:43.866Z,63.34
2023-03-26T06:36:29.157Z,64.21
2023-03-26T06:38:04.191Z,61.79
2023-03-26T06:39:57.680Z,58.52
2023-03-26T06:41:41.151Z,56.49
2023-03-26T06:43:18.645Z,57.16
2023-03-26T06:45:03.529Z,58.81
2023-03-26T06:46:55.808Z,60.82
2023-03-26T06:48:43.964Z,62.66
2023-03-26T06:50:46.940Z,64.52
2023-03-26T06:52:29.549Z,61.93
2023-03-26T06:54:25.140Z,58.19
2023-03-26T06:56:01.082Z,56.40
2023-03-26T06:57:53.541Z,57.01
2023-03-26T06:59:45.630Z,58.93
2023-03-26T07:01:26.021Z,60.87
2023-03-26T07:03:07.191Z,62.44
2023-03-26T07:05:01.273Z,64.09
2023-03-26T07:06:44.549Z,61.40
2023-03-26T07:08:45.793Z,57.49
2023-03-26T07:10:49.629Z,55.56
2023-03-26T07:12:41.948Z,57.28
2023-03-26T07:14:42.491Z,59.04
2023-03-26T07:16:31.013Z,60.79
2023-03-26T07:18:15.580Z,62.01
2023-03-26T07:20:01.784Z,63.46
2023-03-26T07:21:47.562Z,63.42
2023-03-26T07:23:45.099Z,59.82
2023-03-26T07:26:00.218Z,55.98
2023-03-26T07:27:54.637Z,56.70
2023-03-26T07:29:53.641Z,58.36
2023-03-26T07:31:46.430Z,60.34
2023-03-26T07:33:46.657Z,62.34
2023-03-26T07:35:50.492Z,64.38
2023-03-26T07:37:48.040Z,61.83
2023-03-26T07:41:15.913Z,56.12
2023-03-26T07:43:17.126Z,56.93
2023-03-26T07:45:49.507Z,59.03
2023-03-26T07:48:10.245Z,61.14
2023-03-26T07:50:05.534Z,62.75
2023-03-26T07:51:47.892Z,64.23
2023-03-26T07:53:28.862Z,61.98
2023-03-26T07:55:25.336Z,58.17
2023-03-26T07:57:33.398Z,56.19
2023-03-26T07:59:49.100Z,57.76
2023-03-26T08:01:38.821Z,59.50
2023-03-26T08:03:15.316Z,60.99
2023-03-26T08:06:00.224Z,62.42
2023-03-26T08:07:41.769Z,64.16
2023-03-26T08:09:23.222Z,62.48
2023-03-26T08:12:05.761Z,57.28
2023-03-26T08:13:39.248Z,55.70
2023-03-26T08:15:20.148Z,56.48
2023-03-26T08:16:42.257Z,58.09
2023-03-26T08:18:19.517Z,59.75
2023-03-26T08:20:08.284Z,61.11
2023-03-26T08:22:01.848Z,62.88
2023-03-26T08:23:23.781Z,64.67
2023-03-26T08:24:59.354Z,63.12
2023-03-26T08:26:29.528Z,59.75
2023-03-26T08:28:15.213Z,56.31
2023-03-26T08:29:51.021Z,55.91
2023-03-26T08:31:28.352Z,57.02
2023-03-26T08:33:02.390Z,58.68
2023-03-26T08:34:29.373Z,60.37
2023-03-26T08:36:14.557Z,61.88
2023-03-26T08:38:08.657Z,63.89
2023-03-26T08:39:42.637Z,63.71
2023-03-26T08:41:28.939Z,60.76
2023-03-26T08:43:13.822Z,57.23
2023-03-26T08:44:50.621Z,56.44
2023-03-26T08:46:23.633Z,57.67
2023-03-26T08:48:18.638Z,59.28
2023-03-26T08:50:06.687Z,60.82
2023-03-26T08:51:40.586Z,62.07
2023-03-26T08:53:14.539Z,63.21
2023-03-26T08:55:02.879Z,63.32
2023-03-26T08:56:38.857Z,60.04
2023-03-26T08:58:24.343Z,56.97
2023-03-26T09:00:09.653Z,55.64
2023-03-26T09:02:04.934Z,56.73
2023-03-26T09:03:47.365Z,58.59
2023-03-26T09:05:32.913Z,59.78
2023-03-26T09:07:18.669Z,61.01
2023-03-26T09:09:04.645Z,62.13
2023-03-26T09:10:47.703Z,63.48
2023-03-26T09:12:19.102Z,63.04
2023-03-26T09:14:07.445Z,60.13
2023-03-26T09:15:43.284Z,56.25
2023-03-26T09:17:12.804Z,55.95
2023-03-26T09:18:46.288Z,57.02
2023-03-26T09:20:08.890Z,58.71
2023-03-26T09:21:55.635Z,59.96
2023-03-26T09:23:17.244Z,61.27
2023-03-26T09:24:52.855Z,61.89
2023-03-26T09:26:39.865Z,63.51
2023-03-26T09:28:24.840Z,62.78
2023-03-26T09:29:58.605Z,59.31
2023-03-26T09:31:45.820Z,55.73
2023-03-26T09:33:19.732Z,55.38
2023-03-26T09:35:04.727Z,56.14
2023-03-26T09:36:58.659Z,57.67
2023-03-26T09:38:39.180Z,58.83
2023-03-26T09:40:20.157Z,59.54
2023-03-26T09:42:12.901Z,60.87
2023-03-26T09:43:57.958Z,62.58
2023-03-26T09:45:43.607Z,63.60
2023-03-26T09:47:11.117Z,61.46
2023-03-26T09:48:44.601Z,57.98
2023-03-26T09:50:29.941Z,54.58
2023-03-26T09:52:15.094Z,54.20
2023-03-26T09:53:50.449Z,54.88
2023-03-26T09:55:20.105Z,55.62
2023-03-26T09:57:12.696Z,56.85
2023-03-26T09:58:48.281Z,57.78
2023-03-26T10:00:21.655Z,59.13
2023-03-26T10:01:57.785Z,59.02
2023-03-26T10:03:34.215Z,60.07
2023-03-26T10:05:08.164Z,60.32
2023-03-26T10:06:44.431Z,60.02
2023-03-26T10:08:31.554Z,60.37
2023-03-26T10:10:17.440Z,60.65
2023-03-26T10:11:53.716Z,60.39
2023-03-26T10:13:39.676Z,60.56
2023-03-26T10:15:32.643Z,60.60
2023-03-26T10:17:15.668Z,60.54
2023-03-26T10:18:56.290Z,60.60
2023-03-26T10:20:30.368Z,60.95
2023-03-26T10:22:15.539Z,61.36
2023-03-26T10:24:00.593Z,61.66
2023-03-26T10:25:37.273Z,62.16
2023-03-26T10:27:19.147Z,63.38
2023-03-26T10:29:04.491Z,61.88
2023-03-26T10:30:59.672Z,57.82
2023-03-26T10:32:35.781Z,53.86
2023-03-26T10:34:28.784Z,53.68
2023-03-26T10:36:15.165Z,53.81
2023-03-26T10:37:48.507Z,54.42
2023-03-26T10:39:36.347Z,55.21
2023-03-26T10:41:18.321Z,56.31
2023-03-26T10:43:04.832Z,57.47
2023-03-26T10:44:54.920Z,58.05
2023-03-26T10:46:28.423Z,58.57
2023-03-26T10:48:13.971Z,57.81
2023-03-26T10:49:49.858Z,57.68
2023-03-26T10:51:12.968Z,58.01
2023-03-26T10:52:58.237Z,58.02
2023-03-26T10:54:31.761Z,58.14
2023-03-26T10:56:16.773Z,58.03
2023-03-26T10:57:50.232Z,58.03
2023-03-26T10:59:44.766Z,57.69
2023-03-26T11:01:34.919Z,57.57
2023-03-26T11:03:20.342Z,58.07
2023-03-26T11:05:14.703Z,58.47
2023-03-26T11:07:08.846Z,59.31
2023-03-26T11:08:44.775Z,59.54
2023-03-26T11:10:18.535Z,58.74
2023-03-26T11:12:03.889Z,58.59
2023-03-26T11:14:09.391Z,59.11
2023-03-26T11:15:38.515Z,59.64
2023-03-26T11:17:39.495Z,59.93
2023-03-26T11:19:12.562Z,60.55
2023-03-26T11:21:18.874Z,60.65
2023-03-26T11:23:15.659Z,60.42
2023-03-26T11:25:00.673Z,60.79
2023-03-26T11:26:41.194Z,60.72
2023-03-26T11:28:21.474Z,60.28
2023-03-26T11:30:06.788Z,60.29
2023-03-26T11:31:43.977Z,60.41
2023-03-26T11:33:17.965Z,60.71
2023-03-26T11:34:52.119Z,60.52
2023-03-26T11:36:45.191Z,60.41
2023-03-26T11:38:38.616Z,59.97
2023-03-26T11:40:21.204Z,59.97
2023-03-26T11:41:43.021Z,59.55
2023-03-26T11:43:44.881Z,58.09
2023-03-26T11:45:30.782Z,57.10
2023-03-26T11:47:14.473Z,56.23
2023-03-26T11:49:07.903Z,56.01
2023-03-26T11:50:41.035Z,54.43
2023-03-26T11:52:30.065Z,54.13
2023-03-26T11:54:15.344Z,54.02
2023-03-26T11:55:51.166Z,54.15
2023-03-26T11:57:44.380Z,54.42
2023-03-26T11:59:19.350Z,54.60
2023-03-26T12:01:06.228Z,55.47
2023-03-26T12:02:39.980Z,55.56
2023-03-26T12:04:13.624Z,55.43
2023-03-26T12:05:49.657Z,55.86
2023-03-26T12:07:35.844Z,56.78
2023-03-26T12:08:59.909Z,57.64
2023-03-26T12:10:45.439Z,58.13
2023-03-26T12:12:12.038Z,57.86
2023-03-26T12:13:36.484Z,57.94
2023-03-26T12:15:21.261Z,57.47
2023-03-26T12:17:06.280Z,57.57
2023-03-26T12:18:59.655Z,57.07
2023-03-26T12:20:32.849Z,55.65
2023-03-26T12:22:19.555Z,55.81
2023-03-26T12:24:05.594Z,55.48
2023-03-26T12:26:02.479Z,55.61
2023-03-26T12:27:52.786Z,55.42
2023-03-26T12:29:15.699Z,55.20
2023-03-26T12:31:03.839Z,54.05
2023-03-26T12:32:46.946Z,53.79
2023-03-26T12:34:32.394Z,52.80
2023-03-26T12:36:17.483Z,52.88
2023-03-26T12:37:59.365Z,53.03
2023-03-26T12:40:08.890Z,53.68
2023-03-26T12:42:52.740Z,54.03
2023-03-26T12:44:48.005Z,55.52
2023-03-26T12:45:31.601Z,57.09
2023-03-26T12:47:56.314Z,58.30
2023-03-26T12:49:11.466Z,58.44
2023-03-26T12:50:58.664Z,58.95
2023-03-26T12:52:45.221Z,59.10
2023-03-26T12:54:39.647Z,60.08
2023-03-26T12:56:25.036Z,61.30
2023-03-26T12:58:01.381Z,62.99
2023-03-26T12:59:53.486Z,64.69
2023-03-26T13:01:34.306Z,62.59
2023-03-26T13:03:19.768Z,60.35
2023-03-26T13:05:13.081Z,56.35
2023-03-26T13:07:02.148Z,56.45
2023-03-26T13:08:44.489Z,57.40
2023-03-26T13:10:17.929Z,59.37
2023-03-26T13:12:02.659Z,60.08
2023-03-26T13:13:36.429Z,60.63
2023-03-26T13:15:12.303Z,61.54
2023-03-26T13:16:53.205Z,62.38
2023-03-26T13:18:38.576Z,62.12
2023-03-26T13:20:23.954Z,62.94
2023-03-26T13:21:57.887Z,61.65
2023-03-26T13:23:43.814Z,57.94
2023-03-26T13:25:28.654Z,53.72
2023-03-26T13:26:50.798Z,52.20
2023-03-26T13:28:31.378Z,52.67
2023-03-26T13:30:12.533Z,52.95
2023-03-26T13:31:58.677Z,53.72
2023-03-26T13:33:44.623Z,54.23
2023-03-26T13:35:20.593Z,54.83
2023-03-26T13:37:15.707Z,55.64
2023-03-26T13:39:08.994Z,55.88
2023-03-26T13:40:53.984Z,56.80
2023-03-26T13:42:39.357Z,57.32
2023-03-26T13:44:24.779Z,58.25
2023-03-26T13:46:18.730Z,58.81
2023-03-26T13:48:11.323Z,59.13
2023-03-26T13:49:56.393Z,59.85
2023-03-26T13:51:29.308Z,59.77
2023-03-26T13:53:13.277Z,59.93
2023-03-26T13:55:06.498Z,59.41
2023-03-26T13:57:00.240Z,58.19
2023-03-26T13:58:34.295Z,57.46
2023-03-26T14:00:21.615Z,56.07
2023-03-26T14:01:55.550Z,56.21
2023-03-26T14:03:24.583Z,55.88
2023-03-26T14:05:09.908Z,55.72
2023-03-26T14:06:40.666Z,55.31
2023-03-26T14:08:21.704Z,55.51
2023-03-26T14:10:12.675Z,55.66
2023-03-26T14:11:57.590Z,56.05
2023-03-26T14:13:24.332Z,56.87
2023-03-26T14:15:09.560Z,57.39
2023-03-26T14:17:04.687Z,58.07
2023-03-26T14:18:40.344Z,58.86
2023-03-26T14:20:25.530Z,58.75
2023-03-26T14:22:01.325Z,58.64
2023-03-26T14:23:46.518Z,58.53
2023-03-26T14:25:20.155Z,57.80
2023-03-26T14:27:05.685Z,57.32
2023-03-26T14:28:42.906Z,56.88
2023-03-26T14:30:31.188Z,56.23
2023-03-26T14:32:13.429Z,55.92
2023-03-26T14:33:44.755Z,55.16
2023-03-26T14:35:29.185Z,54.61
2023-03-26T14:36:53.097Z,54.31
2023-03-26T14:38:41.951Z,53.21
2023-03-26T14:40:08.151Z,52.69
2023-03-26T14:41:41.606Z,53.61
2023-03-26T14:43:17.198Z,54.22
2023-03-26T14:45:05.497Z,54.55
2023-03-26T14:46:59.780Z,54.59
2023-03-26T14:48:32.825Z,54.79
2023-03-26T14:50:16.087Z,55.00
2023-03-26T14:51:42.621Z,55.36
2023-03-26T14:53:06.779Z,55.24
2023-03-26T14:54:59.744Z,55.77
2023-03-26T14:56:24.333Z,56.16
2023-03-26T14:57:53.497Z,56.40
2023-03-26T14:59:38.690Z,56.96
2023-03-26T15:01:14.745Z,57.21
2023-03-26T15:03:00.396Z,57.59
2023-03-26T15:04:47.269Z,57.85
2023-03-26T15:06:14.197Z,58.06
2023-03-26T15:07:38.348Z,58.19
2023-03-26T15:09:11.497Z,58.52
2023-03-26T15:10:46.946Z,58.77
2023-03-26T15:12:13.043Z,59.08
2023-03-26T15:13:46.878Z,59.72
2023-03-26T15:15:20.371Z,59.65
2023-03-26T15:17:01.169Z,60.14
2023-03-26T15:18:45.725Z,60.25
2023-03-26T15:20:25.937Z,60.67
2023-03-26T15:22:07.452Z,60.71
2023-03-26T15:23:41.133Z,60.63
2023-03-26T15:25:14.168Z,60.71
2023-03-26T15:27:07.757Z,60.96
2023-03-26T15:28:48.565Z,61.16
2023-03-26T15:30:42.076Z,61.44
2023-03-26T15:32:18.116Z,61.55
2023-03-26T15:34:08.776Z,61.38
2023-03-26T15:36:01.903Z,61.39
2023-03-26T15:37:51.256Z,61.35
2023-03-26T15:39:59.459Z,61.71
2023-03-26T15:41:43.704Z,61.99
2023-03-26T15:43:28.880Z,61.26
2023-03-26T15:45:00.668Z,60.99
2023-03-26T15:46:35.856Z,61.15
2023-03-26T15:48:17.668Z,61.18
2023-03-26T15:49:53.654Z,60.63
2023-03-26T15:51:22.482Z,60.55
2023-03-26T15:52:55.966Z,60.57
2023-03-26T15:54:36.442Z,60.02
2023-03-26T15:56:00.547Z,59.61
2023-03-26T15:57:22.365Z,59.87
2023-03-26T15:59:04.733Z,59.82
2023-03-26T16:00:49.721Z,59.75
2023-03-26T16:02:23.719Z,59.98
2023-03-26T16:03:49.998Z,60.06
2023-03-26T16:05:16.346Z,60.32
2023-03-26T16:06:50.400Z,60.64
2023-03-26T16:08:39.840Z,60.95
2023-03-26T16:10:14.054Z,61.12
2023-03-26T16:11:57.845Z,61.21
2023-03-26T16:13:31.348Z,61.39
2023-03-26T16:14:53.760Z,61.55
2023-03-26T16:16:28.135Z,61.64
2023-03-26T16:18:06.404Z,61.52
2023-03-26T16:19:28.011Z,61.74
2023-03-26T16:21:03.371Z,61.78
2023-03-26T16:22:56.435Z,61.96
2023-03-26T16:24:20.570Z,62.23
2023-03-26T16:25:51.657Z,62.05
2023-03-26T16:27:27.720Z,62.12
2023-03-26T16:29:02.305Z,61.93
2023-03-26T16:30:55.987Z,61.90
2023-03-26T16:32:20.377Z,61.96
2023-03-26T16:33:53.649Z,61.62
2023-03-26T16:35:27.364Z,61.94
2023-03-26T16:37:12.481Z,61.91
2023-03-26T16:38:36.636Z,62.00
2023-03-26T16:40:13.587Z,62.02
2023-03-26T16:41:56.321Z,62.13
2023-03-26T16:43:35.549Z,62.30
2023-03-26T16:45:20.878Z,62.21
2023-03-26T16:47:14.706Z,62.13
2023-03-26T16:48:48.080Z,62.13
2023-03-26T16:50:28.980Z,62.21
2023-03-26T16:51:56.404Z,62.42
2023-03-26T16:53:49.611Z,62.58
2023-03-26T16:55:43.674Z,62.78
2023-03-26T16:57:24.549Z,58.76
2023-03-26T16:59:17.920Z,54.37
2023-03-26T17:01:04.044Z,53.84
2023-03-26T17:02:53.721Z,54.36
2023-03-26T17:04:27.346Z,55.46
2023-03-26T17:06:13.950Z,56.06
2023-03-26T17:07:47.181Z,56.99
2023-03-26T17:09:32.089Z,57.80
2023-03-26T17:11:15.782Z,58.33
2023-03-26T17:12:49.253Z,58.68
2023-03-26T17:14:13.996Z,59.19
2023-03-26T17:15:37.784Z,59.65
2023-03-26T17:17:01.941Z,59.92
2023-03-26T17:18:26.621Z,60.26
2023-03-26T17:20:00.716Z,60.62
2023-03-26T17:21:45.529Z,60.90
2023-03-26T17:23:31.779Z,61.38
2023-03-26T17:25:10.376Z,61.80
2023-03-26T17:27:11.714Z,62.32
2023-03-26T17:28:45.006Z,62.51
2023-03-26T17:30:30.679Z,63.37
2023-03-26T17:32:12.739Z,61.25
2023-03-26T17:33:57.671Z,55.91
2023-03-26T17:35:43.216Z,54.05
2023-03-26T17:37:16.456Z,54.25
2023-03-26T17:38:49.513Z,55.52
2023-03-26T17:40:43.731Z,56.55
2023-03-26T17:42:16.978Z,57.48
2023-03-26T17:44:02.032Z,58.50
2023-03-26T17:45:37.724Z,59.10
2023-03-26T17:47:06.956Z,59.77
2023-03-26T17:49:00.335Z,60.27
2023-03-26T17:50:42.508Z,60.80
2023-03-26T17:52:18.024Z,61.49
2023-03-26T17:54:07.718Z,61.90
2023-03-26T17:55:36.940Z,62.85
2023-03-26T17:57:22.745Z,63.08
2023-03-26T17:59:11.220Z,58.99
2023-03-26T18:01:05.515Z,54.75
2023-03-26T18:02:43.662Z,54.45
2023-03-26T18:04:19.631Z,55.48
2023-03-26T18:05:55.574Z,56.59
2023-03-26T18:07:31.915Z,57.84
2023-03-26T18:09:16.589Z,58.78
2023-03-26T18:13:17.777Z,60.69
2023-03-26T18:17:11.912Z,62.11
2023-03-26T18:18:58.579Z,63.11
2023-03-26T18:20:45.826Z,62.59
2023-03-26T18:22:40.732Z,58.92
2023-03-26T18:24:05.266Z,54.68
2023-03-26T18:25:40.904Z,54.40
2023-03-26T18:27:17.227Z,55.68
2023-03-26T18:29:10.833Z,57.20
2023-03-26T18:30:55.016Z,58.33
2023-03-26T18:32:31.087Z,59.76
2023-03-26T18:34:05.054Z,60.85
2023-03-26T18:35:59.751Z,62.02
2023-03-26T18:37:48.269Z,63.88
2023-03-26T18:39:35.535Z,62.51
2023-03-26T18:41:12.173Z,58.07
2023-03-26T18:42:54.714Z,54.98
2023-03-26T18:44:19.179Z,55.09
2023-03-26T18:46:04.461Z,56.27
2023-03-26T18:47:38.093Z,57.65
2023-03-26T18:49:14.025Z,58.87
2023-03-26T18:51:08.422Z,60.03
2023-03-26T18:52:49.098Z,61.45
2023-03-26T18:54:25.323Z,62.38
2023-03-26T18:55:59.000Z,63.88
2023-03-26T18:57:35.036Z,63.07
2023-03-26T18:58:57.710Z,59.68
2023-03-26T19:00:20.610Z,56.21
2023-03-26T19:02:14.676Z,55.11
2023-03-26T19:03:36.709Z,56.07
2023-03-26T19:04:58.774Z,57.42
2023-03-26T19:06:35.926Z,58.79
2023-03-26T19:08:01.011Z,59.94
2023-03-26T19:09:32.074Z,60.97
2023-03-26T19:11:17.835Z,62.17
2023-03-26T19:12:53.781Z,63.70
2023-03-26T19:14:35.914Z,63.13
2023-03-26T19:16:12.076Z,59.94
2023-03-26T19:17:57.183Z,55.88
2023-03-26T19:19:31.981Z,55.30
2023-03-26T19:21:05.784Z,56.58
2023-03-26T19:22:46.674Z,58.22
2023-03-26T19:24:09.418Z,59.56
2023-03-26T19:25:50.683Z,61.04
2023-03-26T19:27:24.332Z,62.42
2023-03-26T19:28:56.024Z,64.22
2023-03-26T19:30:29.395Z,63.18
2023-03-26T19:31:51.860Z,60.07
2023-03-26T19:33:24.978Z,56.87
2023-03-26T19:35:15.440Z,55.44
2023-03-26T19:36:57.739Z,56.58
2023-03-26T19:38:34.446Z,58.15
2023-03-26T19:39:58.553Z,59.46
2023-03-26T19:41:31.835Z,60.76
2023-03-26T19:43:04.528Z,61.81
2023-03-26T19:44:46.333Z,63.20
2023-03-26T19:46:19.797Z,63.93
2023-03-26T19:48:04.071Z,61.22
2023-03-26T19:49:45.073Z,56.92
2023-03-26T19:51:19.923Z,55.56
2023-03-26T19:53:14.677Z,56.46
2023-03-26T19:54:39.012Z,58.12
2023-03-26T19:56:33.769Z,60.03
2023-03-26T19:57:56.026Z,61.20
2023-03-26T19:59:28.909Z,62.38
2023-03-26T20:00:53.106Z,63.96
2023-03-26T20:02:26.375Z,63.60
2023-03-26T20:03:48.542Z,60.94
2023-03-26T20:05:34.726Z,57.41
2023-03-26T20:07:19.961Z,55.47
2023-03-26T20:08:50.458Z,56.64
2023-03-26T20:10:14.739Z,58.04
2023-03-26T20:11:39.605Z,59.09
2023-03-26T20:13:09.609Z,60.28
2023-03-26T20:14:45.086Z,61.43
2023-03-26T20:16:17.256Z,62.69
2023-03-26T20:18:11.187Z,64.32
2023-03-26T20:19:44.323Z,61.92
2023-03-26T20:21:16.319Z,59.11
2023-03-26T20:22:40.474Z,56.13
2023-03-26T20:24:26.283Z,55.91
2023-03-26T20:25:53.031Z,57.24
2023-03-26T20:27:26.794Z,58.70
2023-03-26T20:28:52.877Z,60.16
2023-03-26T20:32:18.333Z,63.13
2023-03-26T20:33:54.168Z,64.33
2023-03-26T20:35:36.252Z,61.68
2023-03-26T20:37:01.255Z,58.28
2023-03-26T20:38:39.400Z,55.89
2023-03-26T20:40:16.567Z,56.28
2023-03-26T20:41:50.152Z,57.91
2023-03-26T20:43:15.974Z,59.54
2023-03-26T20:44:38.238Z,61.02
2023-03-26T20:46:23.949Z,62.50
2023-03-26T20:48:04.996Z,64.45
2023-03-26T20:49:41.120Z,63.02
2023-03-26T20:51:22.276Z,59.62
2023-03-26T20:53:06.726Z,56.29
2023-03-26T20:54:36.146Z,56.02
2023-03-26T20:56:11.693Z,57.34
2023-03-26T20:57:56.722Z,58.77
2023-03-26T20:59:28.024Z,60.64
2023-03-26T21:00:51.805Z,61.93
2023-03-26T21:02:16.412Z,63.39
2023-03-26T21:03:38.785Z,64.41
2023-03-26T21:05:14.588Z,62.52
2023-03-26T21:06:48.125Z,59.15
2023-03-26T21:08:33.686Z,55.70
2023-03-26T21:09:57.972Z,55.71
2023-03-26T21:11:31.492Z,57.01
2023-03-26T21:13:00.675Z,58.28
2023-03-26T21:14:30.493Z,59.84
2023-03-26T21:15:52.583Z,60.99
2023-03-26T21:17:27.112Z,62.04
2023-03-26T21:19:00.977Z,63.65
2023-03-26T21:20:36.983Z,63.96
2023-03-26T21:21:59.145Z,61.23
2023-03-26T21:23:25.858Z,58.19
2023-03-26T21:24:59.325Z,55.80
2023-03-26T21:26:33.973Z,56.15
2023-03-26T21:28:28.854Z,57.97
2023-03-26T21:29:58.179Z,59.64
2023-03-26T21:31:31.561Z,60.70
2023-03-26T21:33:05.481Z,62.10
2023-03-26T21:34:47.802Z,63.33
2023-03-26T21:36:24.845Z,63.91
2023-03-26T21:37:58.864Z,61.14
2023-03-26T21:39:34.956Z,58.07
2023-03-26T21:41:08.824Z,55.52
2023-03-26T21:42:33.238Z,55.76
2023-03-26T21:43:55.382Z,57.02
2023-03-26T21:45:25.003Z,58.51
2023-03-26T21:47:18.538Z,60.08
2023-03-26T21:48:48.091Z,61.29
2023-03-26T21:50:24.296Z,62.46
2023-03-26T21:51:57.759Z,64.20
2023-03-26T21:53:21.973Z,63.29
2023-03-26T21:55:09.670Z,59.93
2023-03-26T21:56:50.808Z,56.07
2023-03-26T21:58:15.281Z,55.69
2023-03-26T21:59:48.520Z,56.91
2023-03-26T22:01:13.505Z,58.26